createdAt,value
2018-11-02T00:00:19.443Z,101558.67
2018-11-02T00:05:02.334Z,101562.02
2018-11-02T00:09:48.969Z,101568.02
2018-11-02T00:14:31.928Z,101569.16
2018-11-02T00:19:19.775Z,101580.53
2018-11-02T00:24:02.718Z,101571.58
2018-11-02T00:28:46.862Z,101566.02
2018-11-02T00:33:29.727Z,101560.00
2018-11-02T00:38:13.811Z,101556.10
2018-11-02T00:42:56.665Z,101544.77
2018-11-02T00:47:41.275Z,101551.41
2018-11-02T00:52:24.156Z,101546.48
2018-11-02T00:57:08.126Z,101547.97
2018-11-02T01:01:51.022Z,101555.94
2018-11-02T01:06:38.203Z,101557.37
2018-11-02T01:11:21.056Z,101566.69
2018-11-02T01:16:04.087Z,101567.83
2018-11-02T01:20:46.952Z,101555.89
2018-11-02T01:25:30.066Z,101550.73
2018-11-02T01:30:12.919Z,101549.39
2018-11-02T01:34:55.810Z,101544.64
2018-11-02T01:39:39.745Z,101534.94
2018-11-02T01:44:22.650Z,101534.94
2018-11-02T01:49:07.462Z,101536.74
2018-11-02T01:55:19.817Z,101543.20
2018-11-02T02:00:02.825Z,101530.42
2018-11-02T02:04:45.690Z,101530.74
2018-11-02T02:09:28.737Z,101533.34
2018-11-02T02:14:11.615Z,101524.22
2018-11-02T02:18:55.757Z,101528.78
2018-11-02T02:23:38.648Z,101534.13
2018-11-02T02:28:23.569Z,101532.79
2018-11-02T02:33:06.470Z,101521.02
2018-11-02T02:37:50.590Z,101519.41
2018-11-02T02:42:33.475Z,101528.09
2018-11-02T02:47:20.595Z,101544.97
2018-11-02T02:52:03.474Z,101537.31
2018-11-02T02:56:47.525Z,101545.16
2018-11-02T03:01:30.418Z,101537.33
2018-11-02T03:06:14.543Z,101546.24
2018-11-02T03:10:57.565Z,101562.53
2018-11-02T03:15:40.607Z,101556.02
2018-11-02T03:20:23.465Z,101553.81
2018-11-02T03:25:08.793Z,101564.37
2018-11-02T03:29:51.689Z,101578.91
2018-11-02T03:34:34.554Z,101561.83
2018-11-02T03:39:20.829Z,101563.46
2018-11-02T03:44:03.701Z,101569.10
2018-11-02T03:48:50.443Z,101566.52
2018-11-02T03:53:33.331Z,101560.05
2018-11-02T03:58:17.297Z,101557.39
2018-11-02T04:03:00.177Z,101560.84
2018-11-02T04:07:46.360Z,101558.78
2018-11-02T04:12:29.242Z,101561.02
2018-11-02T04:17:15.617Z,101567.47
2018-11-02T04:21:58.738Z,101567.14
2018-11-02T04:26:45.599Z,101565.18
2018-11-02T04:31:28.488Z,101558.13
2018-11-02T04:36:12.646Z,101565.69
2018-11-02T04:40:55.646Z,101569.31
2018-11-02T04:45:39.877Z,101567.47
2018-11-02T04:50:23.223Z,101573.34
2018-11-02T04:55:07.329Z,101573.14
2018-11-02T04:59:50.231Z,101584.39
2018-11-02T05:04:33.107Z,101588.82
2018-11-02T05:09:16.038Z,101577.00
2018-11-02T05:13:58.922Z,101583.95
2018-11-02T05:18:45.000Z,101578.78
2018-11-02T05:23:27.922Z,101589.14
2018-11-02T05:28:11.977Z,101603.17
2018-11-02T05:32:54.883Z,101603.30
2018-11-02T05:37:38.801Z,101613.77
2018-11-02T05:42:21.685Z,101609.79
2018-11-02T05:47:05.932Z,101622.31
2018-11-02T05:51:48.851Z,101622.07
2018-11-02T05:56:33.964Z,101625.21
2018-11-02T06:01:16.892Z,101628.47
2018-11-02T06:06:02.009Z,101624.52
2018-11-02T06:10:44.917Z,101627.55
2018-11-02T06:15:29.850Z,101634.05
2018-11-02T06:20:12.759Z,101641.45
2018-11-02T06:24:55.858Z,101631.06
2018-11-02T06:29:38.733Z,101622.11
2018-11-02T06:34:21.593Z,101623.36
2018-11-02T06:39:06.906Z,101625.59
2018-11-02T06:43:50.085Z,101632.14
2018-11-02T06:48:35.093Z,101629.02
2018-11-02T06:53:18.003Z,101621.05
2018-11-02T06:58:02.934Z,101618.58
2018-11-02T07:02:45.835Z,101613.14
2018-11-02T07:07:29.011Z,101600.05
2018-11-02T07:12:11.735Z,101601.83
2018-11-02T07:16:55.723Z,101606.11
2018-11-02T07:21:38.665Z,101605.30
2018-11-02T07:26:21.755Z,101600.50
2018-11-02T07:31:04.995Z,101612.05
2018-11-02T07:35:47.947Z,101613.84
2018-11-02T07:40:30.921Z,101607.25
2018-11-02T07:45:15.387Z,101591.14
2018-11-02T07:49:58.262Z,101604.33
2018-11-02T07:54:41.286Z,101602.77
2018-11-02T07:59:24.146Z,101598.78
2018-11-02T08:04:07.040Z,101587.09
2018-11-02T10:37:34.251Z,101469.22
2018-11-02T10:42:18.478Z,101468.25
2018-11-02T10:47:02.098Z,101446.09
2018-11-02T10:51:46.048Z,101437.53
2018-11-02T10:56:29.338Z,101443.35
2018-11-02T11:01:18.704Z,101434.78
2018-11-02T11:06:01.659Z,101432.95
2018-11-02T11:10:44.572Z,101440.77
2018-11-02T11:15:30.732Z,101445.19
2018-11-02T11:20:14.095Z,101429.85
2018-11-02T11:24:58.014Z,101423.72
2018-11-02T11:29:40.945Z,101423.90
2018-11-02T11:34:24.822Z,101423.18
2018-11-02T11:39:10.670Z,101416.84
2018-11-02T11:43:57.223Z,101417.61
2018-11-02T11:48:40.133Z,101436.20
2018-11-02T11:53:23.251Z,101429.87
2018-11-02T11:58:06.284Z,101414.02
2018-11-02T12:02:51.498Z,101419.94
2018-11-02T12:07:34.478Z,101416.36
2018-11-02T12:12:18.745Z,101417.98
2018-11-02T12:17:01.692Z,101430.36
2018-11-02T12:21:45.672Z,101418.47
2018-11-02T12:26:28.619Z,101412.06
2018-11-02T12:31:12.792Z,101418.64
2018-11-02T12:35:55.826Z,101419.38
2018-11-02T12:40:38.843Z,101418.59
2018-11-02T12:45:22.290Z,101398.64
2018-11-02T12:50:07.832Z,101405.83
2018-11-02T12:54:50.685Z,101394.98
2018-11-02T12:59:33.551Z,101389.84
2018-11-02T13:04:17.490Z,101379.44
2018-11-02T13:09:00.403Z,101394.85
2018-11-02T13:13:44.298Z,101401.55
2018-11-02T13:18:27.176Z,101403.78
2018-11-02T13:23:10.371Z,101416.33
2018-11-02T13:27:53.245Z,101418.49
2018-11-02T13:32:38.584Z,101402.88
2018-11-02T13:37:21.611Z,101413.40
2018-11-02T13:42:06.760Z,101420.13
2018-11-02T13:46:49.661Z,101426.52
2018-11-02T13:51:32.819Z,101427.28
2018-11-02T13:56:15.661Z,101433.16
2018-11-02T14:01:02.068Z,101431.86
2018-11-02T14:05:44.942Z,101437.93
2018-11-02T14:10:27.812Z,101441.91
2018-11-02T14:15:12.943Z,101446.58
2018-11-02T14:19:55.818Z,101447.92
2018-11-02T14:24:39.786Z,101444.91
2018-11-02T14:38:21.648Z,101448.78
2018-11-02T14:43:06.504Z,101450.97
2018-11-02T14:47:49.465Z,101456.40
2018-11-02T14:52:33.581Z,101466.86
2018-11-02T14:57:16.455Z,101456.70
2018-11-02T15:02:02.970Z,101456.86
2018-11-02T15:06:45.858Z,101461.04
2018-11-02T15:11:29.018Z,101457.80
2018-11-02T15:16:11.932Z,101458.97
2018-11-02T15:20:55.968Z,101463.39
2018-11-02T15:25:38.839Z,101463.03
2018-11-02T15:30:22.761Z,101469.79
2018-11-02T15:35:06.650Z,101478.64
2018-11-02T15:39:49.571Z,101482.46
2018-11-02T15:44:34.662Z,101494.97
2018-11-02T15:49:17.475Z,101499.30
2018-11-02T15:54:02.582Z,101509.50
2018-11-02T15:58:45.508Z,101511.63
2018-11-02T16:03:31.926Z,101514.56
2018-11-02T16:08:14.818Z,101526.50
2018-11-02T16:12:59.772Z,101530.50
2018-11-02T16:17:42.705Z,101521.97
2018-11-02T16:22:26.805Z,101532.11
2018-11-02T16:27:09.692Z,101538.39
2018-11-02T16:31:55.873Z,101541.93
2018-11-02T16:36:38.808Z,101540.75
2018-11-02T16:41:22.931Z,101542.44
2018-11-02T16:46:06.031Z,101538.41
2018-11-02T16:50:48.939Z,101540.60
2018-11-02T16:55:31.908Z,101544.28
2018-11-02T17:00:17.434Z,101544.94
2018-11-02T17:05:00.437Z,101544.39
2018-11-02T17:09:43.302Z,101549.01
2018-11-02T17:14:29.790Z,101544.05
2018-11-02T17:19:12.908Z,101542.73
2018-11-02T17:23:56.308Z,101539.67
2018-11-02T17:28:39.219Z,101536.78
2018-11-02T17:33:24.131Z,101539.45
2018-11-02T17:38:07.048Z,101549.38
2018-11-02T17:42:53.099Z,101554.89
2018-11-02T17:47:37.788Z,101555.71
2018-11-02T17:52:20.800Z,101555.20
2018-11-02T17:57:04.560Z,101547.88
2018-11-02T18:01:51.203Z,101554.23
2018-11-02T18:06:34.736Z,101545.20
2018-11-02T18:11:17.684Z,101553.52
2018-11-02T18:16:00.592Z,101546.72
2018-11-02T18:20:43.663Z,101547.05
2018-11-02T18:25:26.566Z,101551.48
2018-11-02T18:30:10.902Z,101555.77
2018-11-02T18:34:54.237Z,101563.61
2018-11-02T18:39:37.071Z,101562.53
2018-11-02T18:44:21.160Z,101564.61
2018-11-02T18:49:04.068Z,101564.36
2018-11-02T18:53:47.958Z,101561.77
2018-11-02T18:58:30.856Z,101553.57
2018-11-02T19:03:14.988Z,101563.28
2018-11-02T19:07:58.201Z,101563.95
2018-11-02T19:12:42.995Z,101565.63
2018-11-02T19:17:25.867Z,101559.36
2018-11-02T19:22:12.681Z,101565.00
2018-11-02T19:26:55.792Z,101565.30
2018-11-02T19:31:38.726Z,101568.77
2018-11-02T19:36:21.671Z,101570.06
2018-11-02T19:41:05.147Z,101561.77
2018-11-02T19:45:48.064Z,101565.36
2018-11-02T19:50:31.120Z,101564.63
2018-11-02T19:55:14.152Z,101564.51
2018-11-02T19:59:59.094Z,101570.91
2018-11-02T20:04:42.021Z,101563.43
2018-11-02T20:09:25.081Z,101570.81
2018-11-02T20:14:08.591Z,101562.54
2018-11-02T20:18:52.081Z,101567.14
2018-11-02T20:23:35.043Z,101564.16
2018-11-02T20:28:17.964Z,101563.16
2018-11-02T20:33:02.755Z,101549.50
2018-11-02T20:37:45.621Z,101550.34
2018-11-02T20:42:29.670Z,101548.23
2018-11-02T20:47:12.558Z,101548.31
2018-11-02T20:51:55.671Z,101545.67
2018-11-02T20:56:38.694Z,101540.60
2018-11-02T21:01:22.694Z,101537.34
2018-11-02T21:06:05.944Z,101540.88
2018-11-02T21:10:50.086Z,101540.72
2018-11-02T21:15:32.959Z,101543.77
2018-11-02T21:20:18.488Z,101543.02
2018-11-02T21:25:01.360Z,101541.05
2018-11-02T21:29:44.408Z,101550.28
2018-11-02T21:34:27.295Z,101543.64
2018-11-02T21:39:11.818Z,101541.80
2018-11-02T21:43:54.679Z,101547.73
2018-11-02T21:48:37.655Z,101549.08
2018-11-02T21:53:20.559Z,101546.11
2018-11-02T21:58:03.488Z,101541.23
2018-11-02T22:02:48.083Z,101543.46
2018-11-02T22:07:30.989Z,101532.86
2018-11-02T22:12:15.942Z,101530.95
2018-11-02T22:16:58.854Z,101533.16
2018-11-02T22:21:41.944Z,101526.28
2018-11-02T22:26:24.830Z,101526.73
2018-11-02T22:31:07.923Z,101522.16
2018-11-02T22:35:50.829Z,101529.23
2018-11-02T22:40:33.725Z,101525.46
2018-11-02T22:45:16.593Z,101525.13
2018-11-02T22:50:00.507Z,101530.44
2018-11-02T22:54:43.367Z,101524.69
2018-11-02T22:59:29.327Z,101519.65
2018-11-02T23:04:12.211Z,101504.94
2018-11-02T23:08:55.555Z,101514.91
2018-11-02T23:13:39.506Z,101510.23
2018-11-02T23:18:22.399Z,101513.77
2018-11-02T23:23:06.377Z,101518.08
2018-11-02T23:27:49.280Z,101517.30
2018-11-02T23:32:33.427Z,101523.23
2018-11-02T23:37:16.330Z,101522.60
2018-11-02T23:42:01.049Z,101515.23
2018-11-02T23:46:43.959Z,101519.31
2018-11-02T23:51:26.978Z,101511.19
2018-11-02T23:56:09.883Z,101508.66
